Time;durP1;ratioP1;P1;durP2;ratioP2;P2;SDS_P1;SDS_P2;PMS_P1;PMS_P2;Temp;Humidity;BMP_temperature;BMP_pressure;BME280_temperature;BME280_humidity;BME280_pressure;Samples;Min_cycle;Max_cycle;Signal;HPM_P1;HPM_P2
2022/06/09 00:00:19;;;;;;;6.12;3.52;;;;;;;18.60;56.62;99001.23;1749404;82;21007;-44
2022/06/09 00:02:49;;;;;;;5.37;3.75;;;;;;;18.57;56.72;99000.72;1749423;82;21010;-44
2022/06/09 00:05:16;;;;;;;7.12;3.67;;;;;;;18.54;56.59;99009.77;1749668;82;21014;-44
2022/06/09 00:07:44;;;;;;;5.75;3.80;;;;;;;18.50;56.59;99002.18;1749642;82;21102;-44
2022/06/09 00:10:22;;;;;;;7.72;4.05;;;;;;;18.46;56.56;99001.48;1744625;82;21254;-44
2022/06/09 00:12:50;;;;;;;6.42;3.72;;;;;;;18.42;56.72;98995.87;1749717;82;20967;-44
2022/06/09 00:15:19;;;;;;;4.92;3.92;;;;;;;18.38;56.90;99000.07;1749310;82;21027;-44
2022/06/09 00:17:48;;;;;;;7.10;4.42;;;;;;;18.33;56.80;98996.44;1749735;82;20963;-44
2022/06/09 00:20:16;;;;;;;5.45;3.90;;;;;;;18.30;56.98;98997.25;1749606;82;21188;-44
2022/06/09 00:22:44;;;;;;;6.75;3.67;;;;;;;18.26;57.22;98996.55;1749596;82;21228;-44
2022/06/09 00:25:12;;;;;;;6.37;4.08;;;;;;;18.24;57.20;98996.21;1749566;82;21047;-44
2022/06/09 00:27:39;;;;;;;6.80;4.15;;;;;;;18.23;57.31;98996.03;1749403;82;20978;-44
2022/06/09 00:30:09;;;;;;;9.78;3.72;;;;;;;18.21;57.48;98999.77;1744481;82;21035;-44
2022/06/09 00:32:36;;;;;;;4.83;3.87;;;;;;;18.18;57.49;98992.39;1744635;82;21039;-44
2022/06/09 00:35:04;;;;;;;5.00;3.87;;;;;;;18.16;57.38;98997.51;1749332;82;21222;-44
2022/06/09 00:37:31;;;;;;;5.62;3.55;;;;;;;18.13;57.42;98997.77;1749189;82;21014;-44
2022/06/09 00:39:59;;;;;;;6.30;3.55;;;;;;;18.11;57.55;98993.88;1749327;82;21038;-44
2022/06/09 00:42:26;;;;;;;4.78;3.55;;;;;;;18.06;57.37;98990.23;1749274;82;21365;-44
2022/06/09 00:44:54;;;;;;;5.10;3.90;;;;;;;18.04;57.24;98991.27;1749368;82;21043;-44
2022/06/09 00:47:32;;;;;;;4.72;3.67;;;;;;;18.03;57.67;98990.48;1749193;82;21088;-44
2022/06/09 00:50:07;;;;;;;6.05;4.05;;;;;;;18.02;58.05;98986.78;1750048;82;20890;-44
2022/06/09 00:52:39;;;;;;;7.90;3.83;;;;;;;18.01;58.28;98990.13;1750762;81;20957;-44
2022/06/09 00:55:13;;;;;;;5.90;3.60;;;;;;;17.99;58.36;98987.63;1750799;82;21579;-44
2022/06/09 00:57:46;;;;;;;5.55;3.77;;;;;;;17.97;58.13;98983.15;1753692;81;21020;-44
2022/06/09 01:00:18;;;;;;;4.62;3.70;;;;;;;17.93;58.07;98991.45;1756188;81;21051;-44
2022/06/09 01:02:46;;;;;;;5.25;3.52;;;;;;;17.92;58.27;98991.85;1755875;81;21499;-44
2022/06/09 01:05:15;;;;;;;5.28;3.72;;;;;;;17.91;58.22;98993.06;1756228;81;21021;-44
2022/06/09 01:07:45;;;;;;;6.05;3.95;;;;;;;17.90;58.32;98990.92;1756463;81;21002;-44
2022/06/09 01:10:13;;;;;;;7.15;3.72;;;;;;;17.89;58.41;98996.22;1756374;81;21032;-44
2022/06/09 01:12:43;;;;;;;5.33;3.72;;;;;;;17.89;58.41;98994.84;1756200;81;21463;-44
2022/06/09 01:15:17;;;;;;;5.00;3.62;;;;;;;17.90;58.39;98995.63;1756150;81;27183;-44
2022/06/09 01:18:10;;;;;;;4.33;3.50;;;;;;;17.89;58.47;98998.19;1756252;81;20969;-44
2022/06/09 01:21:02;;;;;;;5.87;3.95;;;;;;;17.87;58.59;98999.19;1720259;83;21509;-44
2022/06/09 01:23:37;;;;;;;6.83;3.90;;;;;;;17.86;58.65;98996.28;1720217;83;21028;-44
2022/06/09 01:26:56;;;;;;;7.22;3.90;;;;;;;17.85;58.77;98998.84;1719745;83;21041;-44
2022/06/09 01:29:44;;;;;;;5.65;3.95;;;;;;;17.85;58.94;99000.21;1720001;83;20945;-44
2022/06/09 01:32:30;;;;;;;5.87;3.70;;;;;;;17.81;59.18;98991.43;1720289;83;21013;-44
2022/06/09 01:35:34;;;;;;;4.80;3.40;;;;;;;17.85;59.17;98990.61;1720033;83;21008;-43
2022/06/09 01:38:01;;;;;;;5.08;3.52;;;;;;;17.91;59.19;98986.21;1720007;83;21566;-44
2022/06/09 01:40:29;;;;;;;4.05;3.33;;;;;;;17.96;58.98;98985.73;1720146;83;21239;-44
2022/06/09 01:42:57;;;;;;;4.55;3.47;;;;;;;17.99;58.56;98980.77;1720095;83;21080;-44
2022/06/09 01:45:29;;;;;;;6.40;3.58;;;;;;;18.01;58.32;98983.89;1720350;83;21550;-44
2022/06/09 01:48:15;;;;;;;4.03;3.30;;;;;;;18.03;58.07;98986.38;1717709;83;21533;-44
2022/06/09 01:51:00;;;;;;;5.60;3.60;;;;;;;18.05;58.21;98984.59;1720341;83;21044;-44
2022/06/09 01:53:41;;;;;;;5.22;3.75;;;;;;;18.04;58.05;98987.94;1719824;83;23128;-44
2022/06/09 01:56:35;;;;;;;4.92;3.62;;;;;;;18.01;58.09;98986.63;1719371;83;21023;-44
2022/06/09 01:59:26;;;;;;;8.25;3.77;;;;;;;17.97;58.05;98990.01;1715088;83;21084;-44
2022/06/09 02:02:12;;;;;;;6.55;3.60;;;;;;;17.93;58.34;98991.45;1714822;83;21083;-44
2022/06/09 02:04:44;;;;;;;5.80;4.00;;;;;;;17.89;58.37;98986.63;1714811;83;21092;-44
2022/06/09 02:07:13;;;;;;;4.97;3.70;;;;;;;17.87;58.65;98988.21;1714716;83;21607;-44
2022/06/09 02:12:28;;;;;;;7.60;4.12;;;;;;;17.85;58.60;98988.66;1775156;79;22667;-43
2022/06/09 02:14:58;;;;;;;8.35;4.12;;;;;;;17.72;58.75;98991.19;1746200;82;21508;-44
2022/06/09 02:17:27;;;;;;;8.90;4.37;;;;;;;17.72;58.48;98993.93;1746277;82;21130;-44
2022/06/09 02:19:54;;;;;;;5.97;4.28;;;;;;;17.73;58.79;98991.97;1746220;82;21307;-44
2022/06/09 02:22:22;;;;;;;5.97;4.37;;;;;;;17.73;58.65;98997.45;1746001;82;21098;-44
2022/06/09 02:24:50;;;;;;;8.10;4.50;;;;;;;17.74;58.74;99001.75;1746143;82;21022;-44
2022/06/09 02:27:17;;;;;;;6.50;4.50;;;;;;;17.72;58.33;98998.05;1746408;82;21515;-44
2022/06/09 02:29:47;;;;;;;8.00;4.87;;;;;;;17.73;58.23;99007.05;1746283;82;21135;-44
2022/06/09 02:32:14;;;;;;;10.03;5.53;;;;;;;17.74;58.46;98999.00;1746190;82;20904;-44
2022/06/09 02:34:41;;;;;;;8.00;4.97;;;;;;;17.73;58.55;99009.19;1746112;82;20974;-44
2022/06/09 02:37:09;;;;;;;7.40;4.65;;;;;;;17.75;58.38;99006.83;1745951;82;21412;-44
2022/06/09 02:39:36;;;;;;;7.80;4.75;;;;;;;17.76;58.41;99007.61;1746108;82;20971;-44
2022/06/09 02:42:07;;;;;;;5.90;4.40;;;;;;;17.78;58.92;99007.95;1746110;82;21130;-44
2022/06/09 02:44:34;;;;;;;;;;;;;;;17.78;59.29;99012.84;1748439;82;21565;-44
2022/06/09 02:47:02;;;;;;;6.75;3.80;;;;;;;17.84;59.16;99013.14;1745912;82;20183;-44
2022/06/09 02:49:29;;;;;;;6.95;4.40;;;;;;;17.87;59.06;99015.64;1745928;82;21010;-44
2022/06/09 02:51:56;;;;;;;6.20;4.03;;;;;;;17.96;58.43;99022.77;1745852;82;21565;-44
2022/06/09 02:54:23;;;;;;;6.45;4.45;;;;;;;18.00;58.20;99024.25;1745943;82;21125;-44
2022/06/09 02:56:51;;;;;;;6.15;4.08;;;;;;;18.06;58.15;99017.67;1745874;82;21035;-44
2022/06/09 02:59:18;;;;;;;4.83;3.70;;;;;;;18.12;57.91;99025.02;1745883;82;20935;-44
2022/06/09 03:01:45;;;;;;;5.12;3.47;;;;;;;18.15;57.73;99025.54;1745836;82;20915;-44
2022/06/09 03:04:13;;;;;;;7.08;3.72;;;;;;;18.17;57.73;99021.80;1746006;82;21098;-44
2022/06/09 03:06:40;;;;;;;5.15;3.80;;;;;;;18.21;57.96;99032.11;1745669;82;23175;-44
2022/06/09 03:09:07;;;;;;;5.20;3.90;;;;;;;18.25;57.81;99025.18;1745832;82;21101;-44
2022/06/09 03:11:34;;;;;;;5.62;4.30;;;;;;;18.29;58.06;99025.14;1748359;81;20991;-44
2022/06/09 03:14:01;;;;;;;7.62;4.20;;;;;;;18.30;58.07;99028.81;1746731;81;21353;-44
2022/06/09 03:16:28;;;;;;;7.90;4.30;;;;;;;18.32;58.22;99025.06;1751199;81;21364;-44
2022/06/09 03:18:55;;;;;;;7.87;4.40;;;;;;;18.36;58.36;99028.52;1751529;81;21190;-44
2022/06/09 03:21:23;;;;;;;8.80;4.47;;;;;;;18.39;58.49;99028.29;1751265;81;20978;-44
2022/06/09 03:23:51;;;;;;;6.97;4.45;;;;;;;18.42;58.49;99034.30;1751112;81;21025;-44
2022/06/09 03:26:18;;;;;;;8.63;5.33;;;;;;;18.45;58.42;99034.23;1750841;82;21065;-44
2022/06/09 03:28:46;;;;;;;6.97;4.80;;;;;;;18.49;58.21;99035.56;1750997;82;21026;-44
2022/06/09 03:31:13;;;;;;;6.78;4.90;;;;;;;18.53;57.87;99033.52;1750919;82;21137;-44
2022/06/09 03:33:42;;;;;;;8.20;5.22;;;;;;;18.58;57.91;99035.22;1751014;82;21006;-44
2022/06/09 03:36:10;;;;;;;12.98;5.72;;;;;;;18.64;58.01;99036.26;1751012;82;26608;-44
2022/06/09 03:38:40;;;;;;;9.70;5.40;;;;;;;18.69;58.17;99033.62;1750797;82;21436;-44
2022/06/09 03:41:07;;;;;;;9.18;5.45;;;;;;;18.75;58.24;99031.16;1751012;82;21011;-44
2022/06/09 03:43:35;;;;;;;7.75;5.10;;;;;;;18.83;58.17;99025.73;1751059;82;21122;-44
2022/06/09 03:46:02;;;;;;;6.15;4.95;;;;;;;18.94;57.96;99029.02;1751134;82;21046;-44
2022/06/09 03:48:30;;;;;;;7.97;5.22;;;;;;;19.07;57.61;99031.31;1751006;82;20970;-44
2022/06/09 03:50:57;;;;;;;6.42;5.25;;;;;;;19.17;57.42;99029.55;1750915;82;21564;-44
2022/06/09 03:53:25;;;;;;;9.10;5.47;;;;;;;19.27;56.99;99034.79;1751042;82;21029;-44
2022/06/09 03:55:52;;;;;;;9.98;5.20;;;;;;;19.36;56.86;99030.11;1751084;82;21295;-44
2022/06/09 03:58:19;;;;;;;7.12;5.15;;;;;;;19.49;56.75;99037.30;1750691;82;21271;-44
2022/06/09 04:00:47;;;;;;;5.92;4.90;;;;;;;19.58;56.82;99038.67;1750985;82;21051;-44
2022/06/09 04:03:14;;;;;;;6.97;5.28;;;;;;;19.67;56.81;99038.85;1750970;82;21094;-44
2022/06/09 04:05:41;;;;;;;7.60;5.10;;;;;;;19.75;56.96;99034.76;1750735;82;21082;-44
2022/06/09 04:08:11;;;;;;;7.47;4.80;;;;;;;19.83;57.19;99033.37;1750678;82;23082;-44
2022/06/09 04:10:40;;;;;;;6.85;4.47;;;;;;;19.91;57.24;99030.62;1750639;82;21116;-44
2022/06/09 04:13:08;;;;;;;7.53;4.85;;;;;;;19.99;57.31;99029.27;1750910;82;21042;-44
2022/06/09 04:15:37;;;;;;;9.70;5.15;;;;;;;20.08;57.60;99030.02;1750759;82;20927;-43
2022/06/09 04:18:06;;;;;;;7.90;4.00;;;;;;;20.16;57.32;99029.41;1750956;82;20986;-44
2022/06/09 04:20:33;;;;;;;6.78;3.83;;;;;;;20.25;56.72;99028.19;1751166;82;21092;-44
2022/06/09 04:23:00;;;;;;;5.35;3.90;;;;;;;20.37;56.26;99029.50;1750941;82;20955;-44
2022/06/09 04:25:27;;;;;;;7.35;4.22;;;;;;;20.49;55.90;99028.78;1750819;82;21525;-44
2022/06/09 04:27:55;;;;;;;4.75;3.65;;;;;;;20.61;55.72;99028.67;1750858;82;21042;-44
2022/06/09 04:30:22;;;;;;;6.45;3.85;;;;;;;20.74;55.52;99022.00;1750818;82;21009;-44
2022/06/09 04:32:50;;;;;;;6.85;3.80;;;;;;;20.86;55.45;99023.26;1751040;82;21832;-44
2022/06/09 04:35:17;;;;;;;5.33;3.95;;;;;;;20.98;54.95;99027.24;1750742;82;20939;-44
2022/06/09 04:38:00;;;;;;;4.95;3.72;;;;;;;21.09;54.99;99022.98;1751023;82;21011;-44
2022/06/09 04:40:30;;;;;;;6.22;3.62;;;;;;;21.20;54.98;99022.07;1750940;82;20947;-44
2022/06/09 04:42:58;;;;;;;5.20;3.62;;;;;;;21.30;54.66;99023.59;1750884;82;21026;-44
2022/06/09 04:45:25;;;;;;;5.75;3.85;;;;;;;21.41;54.91;99032.30;1750929;82;21123;-44
2022/06/09 04:47:52;;;;;;;4.87;3.37;;;;;;;21.50;54.33;99029.66;1751071;82;21014;-44
2022/06/09 04:50:20;;;;;;;5.90;3.52;;;;;;;21.62;53.92;99029.67;1750976;82;21575;-44
2022/06/09 04:52:47;;;;;;;5.20;3.30;;;;;;;21.76;53.24;99025.69;1751118;82;21078;-44
2022/06/09 04:55:15;;;;;;;8.05;3.00;;;;;;;21.87;52.98;99020.61;1751089;82;21094;-44
2022/06/09 04:57:42;;;;;;;4.12;3.33;;;;;;;22.02;52.44;99024.48;1750946;82;23216;-44
2022/06/09 05:00:11;;;;;;;5.97;2.72;;;;;;;22.16;52.52;99026.61;1750929;82;20988;-44
2022/06/09 05:02:38;;;;;;;3.77;2.90;;;;;;;22.28;52.59;99025.78;1751117;82;21021;-44
2022/06/09 05:05:10;;;;;;;4.20;3.15;;;;;;;22.41;52.15;99022.40;1750910;82;20951;-44
2022/06/09 05:07:37;;;;;;;3.98;3.20;;;;;;;22.53;52.36;99022.95;1750884;82;21082;-44
2022/06/09 05:10:07;;;;;;;4.15;3.10;;;;;;;22.66;51.80;99024.27;1750894;82;21305;-44
2022/06/09 05:12:34;;;;;;;7.50;3.50;;;;;;;22.76;50.67;99028.06;1738752;82;21027;-44
2022/06/09 05:15:03;;;;;;;6.47;3.47;;;;;;;22.86;50.77;99024.15;1732147;82;21086;-44
2022/06/09 05:17:31;;;;;;;7.08;3.72;;;;;;;22.96;51.53;99022.98;1732359;82;20983;-44
2022/06/09 05:19:58;;;;;;;8.18;3.67;;;;;;;23.06;51.41;99025.81;1732215;82;21083;-44
2022/06/09 05:22:25;;;;;;;7.72;3.30;;;;;;;23.13;50.80;99024.17;1732039;82;21239;-44
2022/06/09 05:24:52;;;;;;;9.75;4.00;;;;;;;23.23;50.50;99018.86;1732166;82;21573;-44
2022/06/09 05:27:20;;;;;;;4.40;3.27;;;;;;;23.31;50.57;99015.97;1732114;82;20936;-44
2022/06/09 05:29:47;;;;;;;6.58;3.52;;;;;;;23.40;50.16;99018.78;1732298;82;21052;-44
2022/06/09 05:32:15;;;;;;;7.67;3.52;;;;;;;23.50;50.22;99028.69;1732301;82;21036;-44
2022/06/09 05:34:42;;;;;;;4.17;3.35;;;;;;;23.57;50.25;99024.28;1732265;82;21211;-44
2022/06/09 05:37:09;;;;;;;5.30;3.22;;;;;;;23.68;50.43;99027.98;1732343;82;21023;-44
2022/06/09 05:45:09;;;;;;;4.00;2.60;;;;;;;23.93;48.36;99026.98;1732261;82;21027;-44
2022/06/09 05:47:36;;;;;;;7.10;2.75;;;;;;;24.02;47.69;99018.70;1732054;82;21821;-44
2022/06/09 05:50:05;;;;;;;4.80;2.87;;;;;;;24.11;47.37;99028.41;1732075;82;20988;-44
2022/06/09 05:52:32;;;;;;;3.98;2.98;;;;;;;24.20;47.55;99025.09;1732047;82;21082;-44
2022/06/09 05:55:00;;;;;;;4.45;2.87;;;;;;;24.32;48.02;99026.17;1711735;82;21020;-44
2022/06/09 05:57:28;;;;;;;4.58;2.40;;;;;;;24.43;48.19;99028.50;1702880;84;21012;-44
2022/06/09 05:59:55;;;;;;;3.02;2.22;;;;;;;24.53;46.64;99030.81;1702715;84;21196;-44
2022/06/09 06:02:25;;;;;;;3.25;2.20;;;;;;;24.63;44.78;99034.36;1702782;84;21031;-44
2022/06/09 06:04:52;;;;;;;2.50;2.30;;;;;;;24.72;43.73;99022.48;1703201;84;21561;-44
2022/06/09 06:07:19;;;;;;;4.22;2.40;;;;;;;24.81;43.92;99029.41;1702803;84;21008;-44
2022/06/09 06:09:48;;;;;;;3.92;2.27;;;;;;;24.90;44.22;99021.88;1703144;84;21585;-44
2022/06/09 06:12:17;;;;;;;2.75;2.02;;;;;;;24.98;41.73;99020.96;1710905;83;21042;-45
2022/06/09 06:14:45;;;;;;;4.03;2.47;;;;;;;25.08;42.26;99026.61;1724053;83;21045;-45
2022/06/09 06:17:13;;;;;;;9.05;2.50;;;;;;;25.16;42.77;99026.47;1742561;82;21031;-44
2022/06/09 06:19:39;;;;;;;4.53;2.12;;;;;;;25.27;42.63;99032.27;1751107;82;21758;-43
2022/06/09 06:22:07;;;;;;;6.30;2.25;;;;;;;25.38;42.28;99029.01;1751212;82;21013;-43
2022/06/09 06:24:34;;;;;;;5.28;2.52;;;;;;;25.50;41.94;99028.83;1750823;82;23128;-43
2022/06/09 06:27:01;;;;;;;9.05;2.40;;;;;;;25.62;42.01;99025.70;1751281;82;20976;-43
2022/06/09 06:29:30;;;;;;;4.37;2.35;;;;;;;25.70;41.99;99025.53;1751104;82;21008;-43
2022/06/09 06:31:57;;;;;;;3.52;1.72;;;;;;;25.77;41.54;99021.62;1715662;82;21104;-43
2022/06/09 06:34:24;;;;;;;2.92;2.02;;;;;;;25.86;40.79;99021.58;1719881;82;21047;-43
2022/06/09 06:36:51;;;;;;;5.17;1.92;;;;;;;25.98;39.20;99026.16;1751296;82;21133;-43
2022/06/09 06:39:20;;;;;;;2.85;1.95;;;;;;;26.09;39.36;99031.97;1714199;83;21537;-43
2022/06/09 06:41:47;;;;;;;2.87;2.03;;;;;;;26.18;39.55;99024.19;1688203;85;21077;-43
2022/06/09 06:44:15;;;;;;;4.53;2.00;;;;;;;26.27;39.13;99026.92;1715306;83;21040;-43
2022/06/09 06:46:42;;;;;;;2.75;2.05;;;;;;;26.34;39.21;99021.77;1688030;85;21025;-43
2022/06/09 06:49:10;;;;;;;3.95;1.85;;;;;;;26.46;39.23;99015.82;1715087;83;21589;-43
2022/06/09 06:51:38;;;;;;;2.15;1.57;;;;;;;26.58;37.98;99018.18;1687858;85;21040;-43
2022/06/09 06:54:06;;;;;;;3.52;1.70;;;;;;;26.67;37.29;99020.29;1714161;83;21032;-43
2022/06/09 06:56:34;;;;;;;3.55;2.00;;;;;;;26.77;37.50;99015.41;1713031;83;21018;-43
2022/06/09 06:59:02;;;;;;;2.00;1.70;;;;;;;26.91;36.17;99016.08;1694865;83;21029;-43
2022/06/09 07:01:30;;;;;;;1.87;1.65;;;;;;;27.02;36.16;99013.47;1703066;83;22128;-43
2022/06/09 07:03:57;;;;;;;2.72;1.60;;;;;;;27.15;35.21;99014.59;1711804;83;20983;-43
2022/06/09 07:06:25;;;;;;;4.33;1.72;;;;;;;27.23;34.99;99010.94;1711971;83;21604;-43
2022/06/09 07:08:52;;;;;;;4.25;1.60;;;;;;;27.37;35.03;99014.95;1682951;83;21587;-43
2022/06/09 07:11:19;;;;;;;2.52;1.47;;;;;;;27.52;35.29;99019.14;1715173;83;21104;-43
2022/06/09 07:13:47;;;;;;;4.65;1.57;;;;;;;27.65;33.46;99015.41;1694179;83;21548;-43
2022/06/09 07:16:14;;;;;;;3.15;1.50;;;;;;;27.77;33.25;99015.73;1684850;84;20990;-43
2022/06/09 07:18:43;;;;;;;3.25;1.67;;;;;;;27.87;33.40;99007.39;1689771;84;20959;-43
2022/06/09 07:21:12;;;;;;;3.40;1.53;;;;;;;27.94;32.63;99018.11;1690075;84;20983;-43
2022/06/09 07:23:39;;;;;;;1.50;1.40;;;;;;;27.97;32.28;99010.19;1690051;84;21505;-43
2022/06/09 07:26:06;;;;;;;3.00;1.57;;;;;;;28.02;31.68;99016.47;1689713;84;23153;-43
2022/06/09 07:28:34;;;;;;;2.75;1.40;;;;;;;28.08;32.20;99017.29;1689768;84;21055;-43
2022/06/09 07:31:02;;;;;;;1.42;1.20;;;;;;;28.15;30.57;99013.98;1689810;84;21305;-43
2022/06/09 07:33:32;;;;;;;1.80;1.40;;;;;;;28.22;30.82;99021.32;1689863;84;21071;-43
2022/06/09 07:35:59;;;;;;;4.33;1.42;;;;;;;28.36;30.85;99025.28;1690212;84;21050;-43
2022/06/09 07:38:26;;;;;;;1.60;1.30;;;;;;;28.48;30.23;99026.94;1690632;83;21161;-43
2022/06/09 07:40:53;;;;;;;2.85;1.30;;;;;;;28.63;29.92;99024.06;1720236;83;21060;-44
2022/06/09 07:43:21;;;;;;;2.50;1.35;;;;;;;28.78;30.10;99024.14;1720340;83;21539;-45
2022/06/09 07:45:50;;;;;;;2.67;1.30;;;;;;;28.94;30.31;99022.16;1720293;83;20985;-45
2022/06/09 07:48:19;;;;;;;4.27;1.60;;;;;;;29.11;30.29;99029.28;1720427;83;21065;-44
2022/06/09 07:50:48;;;;;;;2.50;1.70;;;;;;;29.25;30.27;99023.44;1720828;83;21301;-45
2022/06/09 07:53:19;;;;;;;2.95;1.55;;;;;;;29.35;29.51;99021.41;1715114;83;21618;-45
2022/06/09 07:55:46;;;;;;;;;;;;;;;29.48;28.48;99023.04;1722574;83;21085;-44
2022/06/09 07:58:14;;;;;;;2.67;1.40;;;;;;;29.58;28.46;99020.20;1720467;83;20216;-45
2022/06/09 08:00:41;;;;;;;4.33;1.30;;;;;;;29.56;29.61;99019.28;1720414;83;21121;-44
2022/06/09 08:03:10;;;;;;;3.22;1.57;;;;;;;29.64;28.60;99024.54;1720312;83;21245;-45
2022/06/09 08:05:38;;;;;;;1.75;1.62;;;;;;;29.70;29.31;99016.97;1716745;83;21029;-43
2022/06/09 08:08:06;;;;;;;3.37;1.87;;;;;;;29.74;29.24;99011.91;1719822;83;21739;-43
2022/06/09 08:10:34;;;;;;;2.97;1.70;;;;;;;29.73;30.09;99015.19;1719864;83;21544;-42
2022/06/09 08:13:03;;;;;;;1.52;1.42;;;;;;;29.69;29.11;99019.63;1715050;83;21669;-43
2022/06/09 08:15:32;;;;;;;2.33;1.55;;;;;;;29.58;29.35;99016.74;1707222;84;21241;-43
2022/06/09 08:17:59;;;;;;;2.92;1.37;;;;;;;29.48;29.10;99012.63;1742612;82;21488;-42
2022/06/09 08:20:28;;;;;;;4.60;1.50;;;;;;;29.37;29.42;99019.52;1742861;82;21007;-42
2022/06/09 08:23:08;;;;;;;4.07;1.63;;;;;;;29.31;28.71;99025.05;1743201;82;21027;-43
2022/06/09 08:25:35;;;;;;;1.50;1.40;;;;;;;29.29;28.48;99022.58;1743172;82;21075;-43
2022/06/09 08:28:04;;;;;;;1.77;1.40;;;;;;;29.34;29.14;99017.70;1737403;82;21122;-43
2022/06/09 08:30:32;;;;;;;1.70;1.40;;;;;;;29.62;28.93;99016.53;1742686;82;20971;-43
2022/06/09 08:32:59;;;;;;;1.42;1.15;;;;;;;29.62;28.93;99016.53;1742203;82;21402;-43
2022/06/09 08:35:26;;;;;;;2.33;1.30;;;;;;;29.73;29.55;99020.16;1728157;83;20964;-43
2022/06/09 08:37:54;;;;;;;5.28;1.45;;;;;;;29.87;29.22;99019.85;1728560;83;21039;-43
2022/06/09 08:40:35;;;;;;;2.55;1.35;;;;;;;30.09;29.27;99019.25;1728577;83;21130;-43
2022/06/09 08:43:43;;;;;;;2.37;1.40;;;;;;;30.31;28.06;99021.38;1728675;82;21016;-43
2022/06/09 08:46:49;;;;;;;1.85;1.40;;;;;;;30.51;27.44;99026.20;1728448;83;20935;-43
2022/06/09 08:49:58;;;;;;;1.40;1.17;;;;;;;30.64;26.90;99017.34;1728321;83;20983;-43
2022/06/09 08:52:39;;;;;;;4.22;1.50;;;;;;;30.83;26.74;99019.81;1728320;83;21082;-43
2022/06/09 08:55:20;;;;;;;1.72;1.40;;;;;;;30.90;26.13;99018.53;1728315;83;21236;-43
2022/06/09 08:57:47;;;;;;;2.17;1.50;;;;;;;30.89;25.74;99017.00;1726606;82;21337;-43
2022/06/09 09:00:19;;;;;;;1.65;1.27;;;;;;;30.84;25.82;99017.78;1728232;83;20952;-42
2022/06/09 09:02:59;;;;;;;4.53;1.30;;;;;;;30.71;26.03;99018.24;1728243;83;20996;-43
2022/06/09 09:05:51;;;;;;;2.85;1.10;;;;;;;30.56;25.99;99014.89;1728457;82;21090;-43
2022/06/09 09:08:18;;;;;;;2.65;1.65;;;;;;;30.38;26.19;99012.52;1728197;83;23117;-43
2022/06/09 09:11:13;;;;;;;4.08;1.50;;;;;;;30.23;27.37;99007.12;1728461;83;21018;-43
2022/06/09 09:13:54;;;;;;;1.52;1.30;;;;;;;30.25;26.54;99005.23;1721542;82;21044;-43
2022/06/09 09:16:44;;;;;;;2.77;1.30;;;;;;;30.30;25.58;98987.70;1678208;83;21099;-43
2022/06/09 09:19:35;;;;;;;2.87;1.35;;;;;;;30.34;27.55;99008.56;1716152;83;21039;-43
2022/06/09 09:22:10;;;;;;;2.37;1.27;;;;;;;30.42;27.32;99008.20;1715778;83;21148;-43
2022/06/09 09:24:46;;;;;;;2.35;1.50;;;;;;;30.50;26.75;99004.34;1716083;83;20967;-42
2022/06/09 09:27:40;;;;;;;1.82;1.30;;;;;;;30.55;26.78;99005.73;1711221;83;21070;-43
2022/06/09 09:30:31;;;;;;;3.83;1.40;;;;;;;30.52;26.61;99003.95;1715974;83;21573;-43
2022/06/09 09:32:58;;;;;;;2.75;1.60;;;;;;;30.46;27.40;99004.56;1715896;83;21531;-43
2022/06/09 09:35:41;;;;;;;1.30;1.10;;;;;;;30.54;27.08;98999.26;1715833;83;21132;-43
2022/06/09 09:38:09;;;;;;;2.65;1.30;;;;;;;30.59;26.52;98995.71;1750262;82;20921;-43
2022/06/09 09:40:46;;;;;;;4.95;1.60;;;;;;;30.44;25.99;99007.72;1751135;81;21024;-43
2022/06/09 09:43:18;;;;;;;3.37;1.67;;;;;;;30.38;26.66;99002.09;1751025;81;21702;-43
2022/06/09 09:45:52;;;;;;;1.45;1.17;;;;;;;30.46;26.77;99000.36;1748204;81;21069;-43
2022/06/09 09:48:25;;;;;;;2.47;1.32;;;;;;;30.54;26.78;98998.62;1751171;81;21556;-43
2022/06/09 09:51:03;;;;;;;2.42;1.40;;;;;;;30.65;26.14;99000.03;1750667;82;21081;-43
2022/06/09 09:53:38;;;;;;;2.50;1.50;;;;;;;30.77;26.37;98996.64;1750638;81;20974;-43
2022/06/09 09:56:20;;;;;;;1.40;1.30;;;;;;;30.92;26.03;98990.81;1750811;81;20919;-43
2022/06/09 09:58:58;;;;;;;2.65;1.20;;;;;;;30.97;26.21;98990.05;1738941;82;21003;-43
2022/06/09 10:08:35;;;;;;;3.02;1.70;;;;;;;30.84;26.16;98986.99;1750990;82;23124;-43
2022/06/09 10:10:14;;;;;;;11.12;5.47;;;;;;;30.85;26.80;98984.30;1751317;82;21661;-43
2022/06/09 10:12:42;;;;;;;4.70;1.80;;;;;;;31.10;26.78;98981.94;1750818;82;21076;-43
2022/06/09 10:15:19;;;;;;;1.77;1.45;;;;;;;31.31;26.17;98983.85;1743305;82;21257;-43
2022/06/09 10:18:17;;;;;;;2.45;1.70;;;;;;;31.53;26.01;98976.81;1744563;82;21075;-44
2022/06/09 10:21:02;;;;;;;2.00;1.50;;;;;;;31.79;25.27;98972.34;1748710;82;21476;-44
2022/06/09 10:23:55;;;;;;;2.80;1.40;;;;;;;32.02;25.16;98978.00;1721787;82;21070;-44
2022/06/09 10:26:33;;;;;;;1.90;1.30;;;;;;;32.17;24.50;98977.08;1718989;83;21121;-44
2022/06/09 10:29:20;;;;;;;3.85;1.47;;;;;;;32.36;24.51;98971.63;1718716;83;21152;-43
2022/06/09 10:32:05;;;;;;;2.90;1.77;;;;;;;32.52;24.88;98970.79;1719347;83;21560;-44
2022/06/09 10:34:50;;;;;;;2.65;1.70;;;;;;;32.77;24.94;98968.22;1746087;82;21518;-44
2022/06/09 10:37:45;;;;;;;2.33;1.32;;;;;;;32.87;25.01;98971.49;1751029;82;21590;-44
2022/06/09 10:40:38;;;;;;;2.45;1.30;;;;;;;32.86;24.25;98966.39;1751361;82;21037;-44
2022/06/09 10:43:36;;;;;;;1.47;1.25;;;;;;;32.74;24.28;98975.52;1747947;82;21146;-43
2022/06/09 10:46:31;;;;;;;6.78;1.85;;;;;;;32.73;24.66;98973.35;1740955;82;21567;-44
2022/06/09 10:55:56;;;;;;;2.05;1.60;;;;;;;33.07;24.16;98966.84;1750882;81;21063;-44
2022/06/09 10:58:32;;;;;;;4.20;1.82;;;;;;;33.23;24.80;98965.86;1750893;81;21141;-44
2022/06/09 11:00:59;;;;;;;3.22;1.70;;;;;;;33.49;23.47;98957.70;1751259;81;20901;-44
2022/06/09 11:03:39;;;;;;;4.08;1.65;;;;;;;33.72;23.26;98961.83;1749775;82;21522;-44
2022/06/09 11:06:34;;;;;;;2.55;1.80;;;;;;;33.96;22.80;98954.78;1749965;82;26879;-44
2022/06/09 11:09:26;;;;;;;2.75;1.77;;;;;;;34.24;22.65;98957.91;1722468;83;21032;-44
2022/06/09 11:12:27;;;;;;;2.72;1.90;;;;;;;34.42;22.00;98951.55;1723021;81;21152;-44
2022/06/09 11:15:26;;;;;;;3.58;1.55;;;;;;;34.58;22.53;98953.34;1660002;84;21547;-44
2022/06/09 11:18:05;;;;;;;2.83;1.50;;;;;;;34.76;21.73;98948.36;1687585;84;20980;-44
2022/06/09 11:21:04;;;;;;;2.25;1.40;;;;;;;35.00;21.19;98953.77;1681902;85;21805;-44
2022/06/09 11:23:41;;;;;;;;;;;;;;;35.08;20.49;98947.61;1728350;83;21111;-44
2022/06/09 11:26:17;;;;;;;2.87;1.40;;;;;;;35.05;20.68;98950.11;1724728;83;21970;-44
2022/06/09 11:28:59;;;;;;;2.52;1.40;;;;;;;35.04;20.65;98955.63;1725523;83;21055;-44
2022/06/09 11:31:37;;;;;;;2.47;1.60;;;;;;;35.08;20.99;98949.02;1725135;83;21052;-44
2022/06/09 11:34:28;;;;;;;5.40;1.80;;;;;;;34.99;21.35;98950.84;1709695;83;20983;-44
2022/06/09 11:37:21;;;;;;;1.85;1.32;;;;;;;34.79;21.11;98954.34;1740224;82;21602;-44
2022/06/09 11:40:07;;;;;;;3.40;1.65;;;;;;;34.36;21.43;98953.67;1746537;81;21305;-44
2022/06/09 11:43:15;;;;;;;2.20;1.30;;;;;;;33.89;21.96;98954.63;1722558;82;21484;-44
2022/06/09 11:45:52;;;;;;;1.52;1.27;;;;;;;33.72;22.22;98954.80;1717866;83;21033;-46
2022/06/09 11:48:33;;;;;;;1.98;1.50;;;;;;;33.62;23.03;98947.98;1725576;82;21092;-45
2022/06/09 11:51:01;;;;;;;2.00;1.40;;;;;;;33.59;22.53;98942.02;1719032;82;20937;-46
2022/06/09 11:53:32;;;;;;;4.30;1.32;;;;;;;33.55;23.07;98942.29;1718569;83;23143;-46
2022/06/09 11:56:33;;;;;;;1.75;1.40;;;;;;;33.55;23.00;98938.75;1719337;82;20934;-46
2022/06/09 11:59:18;;;;;;;2.90;1.37;;;;;;;33.61;23.23;98945.81;1718795;83;21048;-46
2022/06/09 12:02:09;;;;;;;3.62;1.52;;;;;;;33.80;22.07;98948.70;1718771;83;21112;-45
2022/06/09 12:04:59;;;;;;;2.80;1.40;;;;;;;34.02;22.42;98940.66;1650316;86;21076;-45
2022/06/09 12:07:41;;;;;;;2.75;1.50;;;;;;;34.38;22.68;98939.81;1667646;84;21139;-46
2022/06/09 12:11:02;;;;;;;2.47;1.30;;;;;;;34.89;22.47;98938.57;1717824;82;21507;-46
2022/06/09 12:14:10;;;;;;;1.80;1.42;;;;;;;35.51;21.03;98941.76;1665910;83;21089;-46
2022/06/09 12:17:10;;;;;;;6.03;1.75;;;;;;;35.95;20.66;98929.63;1715712;83;21915;-46
2022/06/09 12:19:55;;;;;;;3.00;1.65;;;;;;;35.92;20.73;98937.02;1752857;81;21016;-46
2022/06/09 12:22:42;;;;;;;3.25;1.67;;;;;;;35.64;20.45;98937.52;1752578;81;21205;-44
2022/06/09 12:25:17;;;;;;;4.00;1.65;;;;;;;35.13;20.93;98945.35;1751382;81;20996;-44